Lincang, China
Current Conditions -  °F | °C
As of 8:00 PM on Friday 19 Dec 2014 (Local Time) from ZPPP Reporting Station
Clear Clear  
Wind Chill: 38°   Ceiling: Unl
Heat Index: 41°   Visibility: 5mi
Dew Point: 36°   Wind: 4mph
Humidity: 81%   Direction: 190°S
Pressure: 30.3"   Gusts: NA
Location:  23.95°N, 100.22°E
Report Text: ZPPP 191200Z 19002MPS 8000 NSC 05/02 Q1026 NOSIG
Loading
Personal Weather Stations






























Interactive Weather Map New forecast layout! Learn more

10-Day Weather Forecast

Advertisements
Track Severe Weather on mobile